createdAt,value
2019-03-05T00:01:48.231Z,7.05
2019-03-05T00:04:18.871Z,7.05
2019-03-05T00:06:50.487Z,7.08
2019-03-05T00:09:22.583Z,7.12
2019-03-05T00:11:53.648Z,7.10
2019-03-05T00:14:25.502Z,7.12
2019-03-05T00:16:56.795Z,7.18
2019-03-05T00:19:27.572Z,7.18
2019-03-05T00:21:57.955Z,7.20
2019-03-05T00:25:00.630Z,7.24
2019-03-05T00:27:36.187Z,7.24
2019-03-05T00:30:31.437Z,7.29
2019-03-05T00:33:24.260Z,7.27
2019-03-05T00:36:01.563Z,7.31
2019-03-05T00:38:50.992Z,7.38
2019-03-05T00:41:44.496Z,7.33
2019-03-05T00:45:11.502Z,7.39
2019-03-05T00:48:12.486Z,7.40
2019-03-05T00:51:03.603Z,7.40
2019-03-05T00:54:22.891Z,7.39
2019-03-05T00:57:05.700Z,7.34
2019-03-05T01:00:14.890Z,7.28
2019-03-05T01:03:17.293Z,7.24
2019-03-05T01:06:20.256Z,7.21
2019-03-05T01:08:50.998Z,7.25
2019-03-05T01:11:22.678Z,7.30
2019-03-05T01:13:54.854Z,7.37
2019-03-05T01:16:28.932Z,7.49
2019-03-05T01:18:59.705Z,7.64
2019-03-05T01:21:32.983Z,7.75
2019-03-05T01:24:03.711Z,7.64
2019-03-05T01:26:34.401Z,7.56
2019-03-05T01:29:05.519Z,7.44
2019-03-05T01:31:47.472Z,7.37
2019-03-05T01:34:27.506Z,7.27
2019-03-05T01:36:59.934Z,7.18
2019-03-05T01:39:44.943Z,7.00
2019-03-05T01:42:21.109Z,6.83
2019-03-05T01:44:51.664Z,6.61
2019-03-05T01:47:22.757Z,6.45
2019-03-05T01:49:53.394Z,6.39
2019-03-05T01:52:24.868Z,6.19
2019-03-05T01:54:55.484Z,6.13
2019-03-05T01:57:25.872Z,5.95
2019-03-05T01:59:56.407Z,5.82
2019-03-05T02:02:27.547Z,5.74
2019-03-05T02:04:58.409Z,5.66
2019-03-05T02:07:29.521Z,5.54
2019-03-05T02:10:01.417Z,5.50
2019-03-05T02:12:32.040Z,5.44
2019-03-05T02:15:02.576Z,5.45
2019-03-05T02:17:34.203Z,5.41
2019-03-05T02:20:05.991Z,5.38
2019-03-05T02:22:45.991Z,5.40
2019-03-05T02:25:39.829Z,5.39
2019-03-05T02:28:54.800Z,5.40
2019-03-05T02:31:42.587Z,5.40
2019-03-05T02:34:42.911Z,5.42
2019-03-05T02:37:42.320Z,5.41
2019-03-05T02:40:23.777Z,5.39
2019-03-05T02:43:10.664Z,5.40
2019-03-05T02:46:10.807Z,5.41
2019-03-05T02:49:37.413Z,5.42
2019-03-05T02:52:31.762Z,5.43
2019-03-05T02:55:29.530Z,5.45
2019-03-05T02:57:58.468Z,5.40
2019-03-05T03:00:47.303Z,5.39
2019-03-05T03:03:25.214Z,5.39
2019-03-05T03:06:14.845Z,5.42
2019-03-05T03:08:45.537Z,5.39
2019-03-05T03:11:16.119Z,5.41
2019-03-05T03:13:46.946Z,5.43
2019-03-05T03:16:18.370Z,5.43
2019-03-05T03:18:48.733Z,5.44
2019-03-05T03:21:19.403Z,5.47
2019-03-05T03:23:49.818Z,5.50
2019-03-05T03:26:20.360Z,5.52
2019-03-05T03:28:51.384Z,5.57
2019-03-05T03:31:22.111Z,5.57
2019-03-05T03:33:52.659Z,5.58
2019-03-05T03:36:23.143Z,5.62
2019-03-05T03:38:55.319Z,5.63
2019-03-05T03:41:26.093Z,5.63
2019-03-05T03:43:57.286Z,5.63
2019-03-05T03:46:27.796Z,5.63
2019-03-05T03:48:59.378Z,5.59
2019-03-05T03:51:30.278Z,5.61
2019-03-05T03:54:00.817Z,5.59
2019-03-05T03:56:31.276Z,5.57
2019-03-05T03:59:01.764Z,5.54
2019-03-05T04:01:32.712Z,5.51
2019-03-05T04:04:03.605Z,5.49
2019-03-05T04:06:37.276Z,5.47
2019-03-05T04:09:11.968Z,5.43
2019-03-05T04:11:43.038Z,5.43
2019-03-05T04:14:13.690Z,5.38
2019-03-05T04:16:44.126Z,5.38
2019-03-05T04:19:16.914Z,5.33
2019-03-05T04:21:47.615Z,5.31
2019-03-05T04:24:20.511Z,5.33
2019-03-05T04:26:51.048Z,5.27
2019-03-05T04:29:22.470Z,5.25
2019-03-05T04:31:53.185Z,5.20
2019-03-05T04:34:24.731Z,5.18
2019-03-05T04:36:55.057Z,5.14
2019-03-05T04:39:25.602Z,5.13
2019-03-05T04:41:57.507Z,5.11
2019-03-05T04:44:37.747Z,5.10
2019-03-05T04:47:09.689Z,5.08
2019-03-05T04:49:45.198Z,5.06
2019-03-05T04:52:18.096Z,5.01
2019-03-05T04:54:49.619Z,4.97
2019-03-05T04:57:20.172Z,4.93
2019-03-05T04:59:50.663Z,4.90
2019-03-05T05:02:21.030Z,4.86
2019-03-05T05:04:51.352Z,4.80
2019-03-05T05:07:23.344Z,4.74
2019-03-05T05:09:53.669Z,4.65
2019-03-05T05:12:24.224Z,4.63
2019-03-05T05:14:54.773Z,4.53
2019-03-05T05:17:25.158Z,4.51
2019-03-05T05:19:55.584Z,4.48
2019-03-05T05:22:26.542Z,4.46
2019-03-05T05:24:56.927Z,4.42
2019-03-05T05:27:29.283Z,4.42
2019-03-05T05:29:59.959Z,4.41
2019-03-05T05:32:30.492Z,4.41
2019-03-05T05:35:01.308Z,4.39
2019-03-05T05:37:32.354Z,4.38
2019-03-05T05:40:40.630Z,4.40
2019-03-05T05:43:13.953Z,4.40
2019-03-05T05:45:46.715Z,4.41
2019-03-05T05:48:20.752Z,4.41
2019-03-05T05:50:51.548Z,4.43
2019-03-05T05:53:22.234Z,4.45
2019-03-05T05:55:52.751Z,4.48
2019-03-05T05:58:25.508Z,4.51
2019-03-05T06:00:59.407Z,4.51
2019-03-05T06:03:30.121Z,4.53
2019-03-05T06:06:01.083Z,4.52
2019-03-05T06:08:31.780Z,4.55
2019-03-05T06:11:02.802Z,4.56
2019-03-05T06:13:33.592Z,4.57
2019-03-05T06:16:04.324Z,4.55
2019-03-05T06:18:35.097Z,4.54
2019-03-05T06:21:06.602Z,4.54
2019-03-05T06:23:37.501Z,4.52
2019-03-05T06:26:08.979Z,4.56
2019-03-05T06:28:40.308Z,4.54
2019-03-05T06:31:10.711Z,4.52
2019-03-05T06:33:42.343Z,4.55
2019-03-05T06:36:12.704Z,4.58
2019-03-05T06:38:43.196Z,4.58
2019-03-05T06:41:13.875Z,4.63
2019-03-05T06:43:44.361Z,4.67
2019-03-05T06:46:14.985Z,4.68
2019-03-05T06:48:45.570Z,4.67
2019-03-05T06:51:16.111Z,4.70
2019-03-05T06:53:46.812Z,4.74
2019-03-05T06:56:17.522Z,4.83
2019-03-05T06:58:47.971Z,4.85
2019-03-05T07:01:19.479Z,4.92
2019-03-05T07:03:50.400Z,4.96
2019-03-05T07:06:58.784Z,5.07
2019-03-05T07:09:45.685Z,5.08
2019-03-05T07:12:59.092Z,5.13
2019-03-05T07:15:53.713Z,5.23
2019-03-05T07:18:34.074Z,5.34
2019-03-05T07:21:47.437Z,5.43
2019-03-05T07:24:45.619Z,5.53
2019-03-05T07:27:21.889Z,5.61
2019-03-05T07:29:52.358Z,5.57
2019-03-05T07:32:22.717Z,5.61
2019-03-05T07:34:53.264Z,5.65
2019-03-05T07:37:23.591Z,5.73
2019-03-05T07:39:53.997Z,5.82
2019-03-05T07:42:24.435Z,5.84
2019-03-05T07:44:54.889Z,5.98
2019-03-05T07:47:28.085Z,6.06
2019-03-05T07:49:58.497Z,5.99
2019-03-05T07:52:28.813Z,6.09
2019-03-05T07:54:59.178Z,6.03
2019-03-05T07:57:29.563Z,6.14
2019-03-05T08:00:00.191Z,6.13
2019-03-05T08:02:30.891Z,6.13
2019-03-05T08:05:01.745Z,6.34
2019-03-05T08:07:32.307Z,6.37
2019-03-05T08:10:10.374Z,6.40
2019-03-05T08:13:22.490Z,6.54
2019-03-05T08:16:24.275Z,6.49
2019-03-05T08:18:54.866Z,6.61
2019-03-05T08:21:25.320Z,6.66
2019-03-05T08:23:56.185Z,6.69
2019-03-05T08:26:26.568Z,6.70
2019-03-05T08:28:57.062Z,6.76
2019-03-05T08:31:28.397Z,6.94
2019-03-05T08:33:58.759Z,6.96
2019-03-05T08:36:29.195Z,6.89
2019-03-05T08:38:59.634Z,6.87
2019-03-05T08:41:30.527Z,6.92
2019-03-05T08:44:01.535Z,6.93
2019-03-05T08:46:32.084Z,7.04
2019-03-05T08:49:02.599Z,6.95
2019-03-05T08:51:33.066Z,6.86
2019-03-05T08:54:03.739Z,6.79
2019-03-05T08:56:34.310Z,6.73
2019-03-05T08:59:05.270Z,6.75
2019-03-05T09:01:35.784Z,6.89
2019-03-05T09:04:06.113Z,6.86
2019-03-05T09:06:36.588Z,6.83
2019-03-05T09:09:09.930Z,6.84
2019-03-05T09:11:42.004Z,7.05
2019-03-05T09:14:12.379Z,7.04
2019-03-05T09:16:42.749Z,6.97
2019-03-05T09:19:13.087Z,7.11
2019-03-05T09:21:43.587Z,7.16
2019-03-05T09:24:13.989Z,7.22
2019-03-05T09:26:51.304Z,7.27
2019-03-05T09:29:16.471Z,7.37
2019-03-05T09:31:46.823Z,7.48
2019-03-05T09:34:17.203Z,7.38
2019-03-05T09:36:51.255Z,7.36
2019-03-05T09:39:20.000Z,7.51
2019-03-05T09:41:50.405Z,7.47
2019-03-05T09:44:20.819Z,7.62
2019-03-05T09:46:51.381Z,7.73
2019-03-05T09:49:22.344Z,7.73
2019-03-05T09:51:52.691Z,7.72
2019-03-05T09:54:23.244Z,7.79
2019-03-05T09:56:53.775Z,7.91
2019-03-05T09:59:24.695Z,7.96
2019-03-05T10:01:56.246Z,7.85
2019-03-05T10:04:26.898Z,8.12
2019-03-05T10:06:57.472Z,8.13
2019-03-05T10:09:29.451Z,7.87
2019-03-05T10:12:00.572Z,8.00
2019-03-05T10:14:31.102Z,7.90
2019-03-05T10:17:02.221Z,7.84
2019-03-05T10:19:32.927Z,7.78
2019-03-05T10:22:05.491Z,7.78
2019-03-05T10:24:36.333Z,7.87
2019-03-05T10:27:07.162Z,8.02
2019-03-05T10:29:38.639Z,8.08
2019-03-05T10:32:09.379Z,7.97
2019-03-05T10:34:40.580Z,7.86
2019-03-05T10:37:16.930Z,7.84
2019-03-05T10:39:43.322Z,7.99
2019-03-05T10:42:13.855Z,8.19
2019-03-05T10:44:44.639Z,8.31
2019-03-05T10:47:15.137Z,8.32
2019-03-05T10:49:45.688Z,8.24
2019-03-05T10:52:17.127Z,7.99
2019-03-05T10:54:47.702Z,7.99
2019-03-05T10:57:18.724Z,8.33
2019-03-05T10:59:50.290Z,8.64
2019-03-05T11:02:21.537Z,8.44
2019-03-05T11:04:52.507Z,8.38
2019-03-05T11:07:23.261Z,8.44
2019-03-05T11:09:55.177Z,8.55
2019-03-05T11:12:26.662Z,8.36
2019-03-05T11:14:57.151Z,8.12
2019-03-05T11:17:27.951Z,8.30
2019-03-05T11:19:58.392Z,8.26
2019-03-05T11:22:28.760Z,8.23
2019-03-05T11:24:59.314Z,8.23
2019-03-05T11:27:29.760Z,8.01
2019-03-05T11:30:00.649Z,7.84
2019-03-05T11:32:31.237Z,7.87
2019-03-05T11:35:03.106Z,7.80
2019-03-05T11:37:33.743Z,7.75
2019-03-05T11:40:04.270Z,7.72
2019-03-05T11:42:34.949Z,7.71
2019-03-05T11:45:10.648Z,7.67
2019-03-05T11:47:40.315Z,7.69
2019-03-05T11:50:11.373Z,7.78
2019-03-05T11:52:42.148Z,7.89
2019-03-05T11:55:14.580Z,7.95
2019-03-05T11:57:45.195Z,7.96
2019-03-05T12:00:20.525Z,8.17
2019-03-05T12:02:51.371Z,8.39
2019-03-05T12:05:21.913Z,8.26
2019-03-05T12:07:55.199Z,8.56
2019-03-05T12:10:26.124Z,8.87
2019-03-05T12:12:58.112Z,8.91
2019-03-05T12:15:29.055Z,8.80
2019-03-05T12:17:59.538Z,8.84
2019-03-05T12:20:29.983Z,8.79
2019-03-05T12:23:02.300Z,8.97
2019-03-05T12:25:36.087Z,9.34
2019-03-05T12:28:10.240Z,9.78
2019-03-05T12:30:38.776Z,10.01
2019-03-05T12:33:09.340Z,9.51
2019-03-05T12:35:40.053Z,9.18
2019-03-05T12:38:10.940Z,9.18
2019-03-05T12:40:41.566Z,8.96
2019-03-05T12:43:12.273Z,9.67
2019-03-05T12:45:42.777Z,10.21
2019-03-05T12:48:13.256Z,10.69
2019-03-05T12:50:44.860Z,10.12
2019-03-05T12:53:16.120Z,9.73
2019-03-05T12:55:46.939Z,9.98
2019-03-05T12:58:17.293Z,10.50
2019-03-05T13:00:48.989Z,10.45
2019-03-05T13:03:19.679Z,10.11
2019-03-05T13:05:50.322Z,9.73
2019-03-05T13:08:20.872Z,9.33
2019-03-05T13:10:51.631Z,9.33
2019-03-05T13:13:22.630Z,9.62
2019-03-05T13:15:56.497Z,9.45
2019-03-05T13:18:26.741Z,9.49
2019-03-05T13:20:57.634Z,9.98
2019-03-05T13:23:28.073Z,9.98
2019-03-05T13:25:58.641Z,10.05
2019-03-05T13:28:29.052Z,9.94
2019-03-05T13:31:00.424Z,10.59
2019-03-05T13:33:33.521Z,10.28
2019-03-05T13:36:05.127Z,10.26
2019-03-05T13:38:37.463Z,9.86
2019-03-05T13:41:07.946Z,9.37
2019-03-05T13:43:38.389Z,9.66
2019-03-05T13:46:08.963Z,10.33
2019-03-05T13:49:19.395Z,10.33
2019-03-05T13:52:16.312Z,9.50
2019-03-05T13:55:14.936Z,9.15
2019-03-05T13:58:31.655Z,8.97
2019-03-05T14:01:02.956Z,8.99
2019-03-05T14:03:45.417Z,8.69
2019-03-05T14:06:55.972Z,8.65
2019-03-05T14:09:24.787Z,8.49
2019-03-05T14:11:55.879Z,8.46
2019-03-05T14:14:34.517Z,8.42
2019-03-05T14:17:27.194Z,8.43
2019-03-05T14:19:57.579Z,8.27
2019-03-05T14:22:28.359Z,8.18
2019-03-05T14:25:02.395Z,7.94
2019-03-05T14:27:31.289Z,6.21
2019-03-05T14:30:03.074Z,5.36
2019-03-05T14:32:35.870Z,4.84
2019-03-05T14:35:11.063Z,4.59
2019-03-05T14:37:41.927Z,4.42
2019-03-05T14:40:24.181Z,4.63
2019-03-05T14:42:49.067Z,4.70
2019-03-05T14:45:22.381Z,4.54
2019-03-05T14:47:54.208Z,4.50
2019-03-05T14:50:24.969Z,4.61
2019-03-05T14:52:55.728Z,4.63
2019-03-05T14:55:27.625Z,4.66
2019-03-05T14:57:58.251Z,4.89
2019-03-05T15:00:29.198Z,5.14
2019-03-05T15:02:59.787Z,5.32
2019-03-05T15:05:30.400Z,5.58
2019-03-05T15:08:00.977Z,5.71
2019-03-05T15:10:32.224Z,5.94
2019-03-05T15:13:15.400Z,6.03
2019-03-05T15:15:36.195Z,5.93
2019-03-05T15:18:06.700Z,6.03
2019-03-05T15:20:37.251Z,5.98
2019-03-05T15:23:07.575Z,5.77
2019-03-05T15:25:39.152Z,5.75
2019-03-05T15:28:09.689Z,5.80
2019-03-05T15:30:40.356Z,5.83
2019-03-05T15:33:11.051Z,5.88
2019-03-05T15:35:42.427Z,5.88
2019-03-05T15:38:13.236Z,5.87
2019-03-05T15:40:43.832Z,5.80
2019-03-05T15:43:14.716Z,5.82
2019-03-05T15:45:45.291Z,5.81
2019-03-05T15:48:15.867Z,5.92
2019-03-05T15:50:46.347Z,5.85
2019-03-05T15:53:17.106Z,5.89
2019-03-05T15:55:47.416Z,5.90
2019-03-05T15:58:17.874Z,5.92
2019-03-05T16:00:48.391Z,6.00
2019-03-05T16:03:18.859Z,6.11
2019-03-05T16:05:49.331Z,6.14
2019-03-05T16:08:20.906Z,6.14
2019-03-05T16:10:54.657Z,6.11
2019-03-05T16:13:24.567Z,6.12
2019-03-05T16:15:55.100Z,6.15
2019-03-05T16:18:25.447Z,6.15
2019-03-05T16:20:58.251Z,6.12
2019-03-05T16:23:28.597Z,6.07
2019-03-05T16:25:59.731Z,6.08
2019-03-05T16:28:30.457Z,6.05
2019-03-05T16:31:17.325Z,6.05
2019-03-05T16:34:05.434Z,6.02
2019-03-05T16:36:51.441Z,6.04
2019-03-05T16:39:36.746Z,6.08
2019-03-05T16:42:46.378Z,6.16
2019-03-05T16:45:34.267Z,6.21
2019-03-05T16:48:20.869Z,6.29
2019-03-05T16:51:22.623Z,6.32
2019-03-05T16:54:12.141Z,6.40
2019-03-05T16:56:52.673Z,6.45
2019-03-05T16:59:53.248Z,6.48
2019-03-05T17:02:59.296Z,6.52
2019-03-05T17:05:43.191Z,6.55
2019-03-05T17:08:35.790Z,6.56
2019-03-05T17:11:23.929Z,6.57
2019-03-05T17:13:56.106Z,6.58
2019-03-05T17:16:27.902Z,6.59
2019-03-05T17:18:59.587Z,6.60
2019-03-05T17:21:30.110Z,6.60
2019-03-05T17:24:01.789Z,6.59
2019-03-05T17:26:32.864Z,6.62
2019-03-05T17:29:03.675Z,6.65
2019-03-05T17:31:36.001Z,6.63
2019-03-05T17:34:06.525Z,6.61
2019-03-05T17:36:37.307Z,6.61
2019-03-05T17:39:11.866Z,6.60
2019-03-05T17:41:43.336Z,6.59
2019-03-05T17:44:14.029Z,6.58
2019-03-05T17:46:45.461Z,6.49
2019-03-05T17:49:16.016Z,6.50
2019-03-05T17:51:46.562Z,6.44
2019-03-05T17:54:17.449Z,6.42
2019-03-05T17:56:47.950Z,6.40
2019-03-05T17:59:18.608Z,6.39
2019-03-05T18:01:49.133Z,6.38
2019-03-05T18:04:19.743Z,6.36
2019-03-05T18:06:50.232Z,6.34
2019-03-05T18:09:21.358Z,6.31
2019-03-05T18:11:51.846Z,6.29
2019-03-05T18:14:22.537Z,6.25
2019-03-05T18:16:53.064Z,6.28
2019-03-05T18:19:23.742Z,6.33
2019-03-05T18:21:54.259Z,6.34
2019-03-05T18:24:24.798Z,6.33
2019-03-05T18:26:55.328Z,6.38
2019-03-05T18:29:25.883Z,6.38
2019-03-05T18:31:56.383Z,6.40
2019-03-05T18:34:26.936Z,6.48
2019-03-05T18:36:57.418Z,6.54
2019-03-05T18:39:27.867Z,6.52
2019-03-05T18:41:59.265Z,6.48
2019-03-05T18:44:29.965Z,6.37
2019-03-05T18:47:00.987Z,5.94
2019-03-05T18:49:31.387Z,5.64
2019-03-05T18:52:01.872Z,5.47
2019-03-05T18:54:32.790Z,5.26
2019-03-05T18:57:03.238Z,5.11
2019-03-05T18:59:33.760Z,5.02
2019-03-05T19:02:04.721Z,4.91
2019-03-05T19:04:35.309Z,4.80
2019-03-05T19:07:05.703Z,4.70
2019-03-05T19:09:36.173Z,4.54
2019-03-05T19:12:06.940Z,4.47
2019-03-05T19:14:37.436Z,4.36
2019-03-05T19:17:07.908Z,4.27
2019-03-05T19:19:38.447Z,4.18
2019-03-05T19:22:08.980Z,4.09
2019-03-05T19:24:39.503Z,4.03
2019-03-05T19:27:10.054Z,4.02
2019-03-05T19:29:40.462Z,3.99
2019-03-05T19:32:10.891Z,3.94
2019-03-05T19:34:42.538Z,3.95
2019-03-05T19:37:13.989Z,3.91
2019-03-05T19:39:44.491Z,3.89
2019-03-05T19:42:15.006Z,3.83
2019-03-05T19:44:45.461Z,3.69
2019-03-05T19:47:15.890Z,3.57
2019-03-05T19:49:46.298Z,3.45
2019-03-05T19:52:16.825Z,3.38
2019-03-05T19:54:47.255Z,3.31
2019-03-05T19:57:17.650Z,3.24
2019-03-05T19:59:48.245Z,3.24
2019-03-05T20:02:18.855Z,3.20
2019-03-05T20:04:49.313Z,3.13
2019-03-05T20:07:19.934Z,3.08
2019-03-05T20:09:50.443Z,2.96
2019-03-05T20:12:20.887Z,2.85
2019-03-05T20:14:51.374Z,2.76
2019-03-05T20:17:21.768Z,2.73
2019-03-05T20:19:52.144Z,2.61
2019-03-05T20:22:22.568Z,2.60
2019-03-05T20:24:53.073Z,2.60
2019-03-05T20:27:23.533Z,2.62
2019-03-05T20:29:54.168Z,2.69
2019-03-05T20:32:24.915Z,2.69
2019-03-05T20:34:55.644Z,2.64
2019-03-05T20:37:27.528Z,2.64
2019-03-05T20:39:58.081Z,2.62
2019-03-05T20:42:28.498Z,2.58
2019-03-05T20:44:59.025Z,2.55
2019-03-05T20:47:29.429Z,2.57
2019-03-05T20:49:59.886Z,2.55
2019-03-05T20:52:30.469Z,2.59
2019-03-05T20:55:01.200Z,2.61
2019-03-05T20:57:33.201Z,2.63
2019-03-05T21:00:03.814Z,2.67
2019-03-05T21:02:34.992Z,2.64
2019-03-05T21:05:05.655Z,2.60
2019-03-05T21:07:36.271Z,2.63
2019-03-05T21:10:07.570Z,2.60
2019-03-05T21:12:38.181Z,2.62
2019-03-05T21:15:09.386Z,2.58
2019-03-05T21:17:40.064Z,2.63
2019-03-05T21:20:11.656Z,2.66
2019-03-05T21:22:42.703Z,2.67
2019-03-05T21:25:13.509Z,2.69
2019-03-05T21:27:44.096Z,2.75
2019-03-05T21:30:19.242Z,2.69
2019-03-05T21:32:50.127Z,2.66
2019-03-05T21:35:21.432Z,2.71
2019-03-05T21:37:51.921Z,2.72
2019-03-05T21:40:23.661Z,2.76
2019-03-05T21:42:54.168Z,2.74
2019-03-05T21:45:27.653Z,2.73
2019-03-05T21:47:58.078Z,2.73
2019-03-05T21:50:28.615Z,2.77
2019-03-05T21:52:59.022Z,2.78
2019-03-05T21:55:29.391Z,2.74
2019-03-05T21:57:59.800Z,2.78
2019-03-05T22:00:31.193Z,2.72
2019-03-05T22:03:01.747Z,2.70
2019-03-05T22:05:32.246Z,2.68
2019-03-05T22:08:02.683Z,2.64
2019-03-05T22:10:33.240Z,2.64
2019-03-05T22:13:03.587Z,2.63
2019-03-05T22:15:34.144Z,2.60
2019-03-05T22:18:04.606Z,2.60
2019-03-05T22:20:35.705Z,2.58
2019-03-05T22:23:07.447Z,2.57
2019-03-05T22:25:38.002Z,2.60
2019-03-05T22:28:08.456Z,2.59
2019-03-05T22:30:39.673Z,2.60
2019-03-05T22:33:10.698Z,2.59
2019-03-05T22:35:41.580Z,2.60
2019-03-05T22:38:12.018Z,2.57
2019-03-05T22:40:43.020Z,2.59
2019-03-05T22:43:13.508Z,2.59
2019-03-05T22:45:44.097Z,2.58
2019-03-05T22:48:14.575Z,2.55
2019-03-05T22:50:45.052Z,2.56
2019-03-05T22:53:15.757Z,2.60
2019-03-05T22:55:46.288Z,2.60
2019-03-05T22:58:16.812Z,2.65
2019-03-05T23:01:10.867Z,2.72
2019-03-05T23:04:03.233Z,2.77
2019-03-05T23:06:34.069Z,2.83
2019-03-05T23:09:08.254Z,2.76
2019-03-05T23:11:41.924Z,2.84
2019-03-05T23:14:12.367Z,2.86
2019-03-05T23:16:43.948Z,2.86
2019-03-05T23:19:17.436Z,2.85
2019-03-05T23:21:47.959Z,2.88
2019-03-05T23:24:18.505Z,2.86
2019-03-05T23:26:49.400Z,2.89
2019-03-05T23:29:26.230Z,2.92
2019-03-05T23:31:57.794Z,2.93
2019-03-05T23:34:30.590Z,2.93
2019-03-05T23:37:01.921Z,2.95
2019-03-05T23:39:32.401Z,2.96
2019-03-05T23:42:03.653Z,2.99
2019-03-05T23:44:34.244Z,2.99
2019-03-05T23:47:05.690Z,2.99
2019-03-05T23:49:36.195Z,3.05
2019-03-05T23:52:06.939Z,3.10
2019-03-05T23:54:37.785Z,3.08
2019-03-05T23:57:09.277Z,3.08
2019-03-05T23:59:41.513Z,3.12
